Las Vegas, Nevada
Traffic Map
Current Weather Conditions
Las Vegas, Nevada
Broken Clouds
Broken Clouds
64°
Feels Like: 64°
Wind Chill: 64° Ceiling: 25000
Heat Index: 64° Visibility: 10mi
Dew Point: 54° Wind: 5mph
Humidity: 70% Direction: 150° (SSE)
Pressure: 29.88in Gusts: 0mph
Raw Report DataKLAS 250856Z 15004KT 10SM FEW090 SCT160 BKN250 18/12 A2988 RMK AO2 SLP101 60001 T01780122 53001 $
Traffic Incident Summary
Active as of:
Severity:
Category:
InformationThere was an issue retrieving the traffic information for this location. Please try a different location or try again shortly.
Advertisements
Track Severe Weather on mobile